sensor_id;sensor_type;location;lat;lon;timestamp;P1;durP1;ratioP1;P2;durP2;ratioP2
7519;SDS011;3801;48.876;10.184;2023-04-07T00:00:30;6.40;;;3.97;;
7519;SDS011;3801;48.876;10.184;2023-04-07T00:05:35;5.57;;;4.03;;
7519;SDS011;3801;48.876;10.184;2023-04-07T00:10:39;6.13;;;4.13;;
7519;SDS011;3801;48.876;10.184;2023-04-07T00:15:43;6.13;;;4.03;;
7519;SDS011;3801;48.876;10.184;2023-04-07T00:20:48;5.57;;;4.20;;
7519;SDS011;3801;48.876;10.184;2023-04-07T00:25:52;6.00;;;3.97;;
7519;SDS011;3801;48.876;10.184;2023-04-07T00:30:56;6.10;;;4.20;;
7519;SDS011;3801;48.876;10.184;2023-04-07T00:36:01;5.33;;;4.10;;
7519;SDS011;3801;48.876;10.184;2023-04-07T00:41:05;5.77;;;4.53;;
7519;SDS011;3801;48.876;10.184;2023-04-07T00:46:09;7.90;;;4.30;;
7519;SDS011;3801;48.876;10.184;2023-04-07T00:51:15;6.87;;;4.53;;
7519;SDS011;3801;48.876;10.184;2023-04-07T00:56:18;6.13;;;4.57;;
7519;SDS011;3801;48.876;10.184;2023-04-07T01:01:22;8.07;;;4.80;;
7519;SDS011;3801;48.876;10.184;2023-04-07T01:06:30;8.87;;;5.13;;
7519;SDS011;3801;48.876;10.184;2023-04-07T01:11:36;10.40;;;5.50;;
7519;SDS011;3801;48.876;10.184;2023-04-07T01:16:45;8.50;;;5.73;;
7519;SDS011;3801;48.876;10.184;2023-04-07T01:21:54;10.37;;;5.93;;
7519;SDS011;3801;48.876;10.184;2023-04-07T01:27:03;7.53;;;5.93;;
7519;SDS011;3801;48.876;10.184;2023-04-07T01:32:09;9.33;;;5.10;;
7519;SDS011;3801;48.876;10.184;2023-04-07T01:37:14;9.83;;;5.17;;
7519;SDS011;3801;48.876;10.184;2023-04-07T01:42:19;10.97;;;6.10;;
7519;SDS011;3801;48.876;10.184;2023-04-07T01:47:25;9.20;;;5.53;;
7519;SDS011;3801;48.876;10.184;2023-04-07T01:52:32;8.57;;;5.20;;
7519;SDS011;3801;48.876;10.184;2023-04-07T01:57:37;7.97;;;5.57;;
7519;SDS011;3801;48.876;10.184;2023-04-07T02:02:51;6.90;;;4.93;;
7519;SDS011;3801;48.876;10.184;2023-04-07T02:07:58;7.73;;;5.37;;
7519;SDS011;3801;48.876;10.184;2023-04-07T02:13:07;8.87;;;5.13;;
7519;SDS011;3801;48.876;10.184;2023-04-07T02:18:13;9.00;;;5.60;;
7519;SDS011;3801;48.876;10.184;2023-04-07T02:23:17;10.27;;;6.33;;
7519;SDS011;3801;48.876;10.184;2023-04-07T02:28:24;8.27;;;5.60;;
7519;SDS011;3801;48.876;10.184;2023-04-07T02:33:29;10.40;;;7.03;;
7519;SDS011;3801;48.876;10.184;2023-04-07T02:38:33;10.87;;;6.50;;
7519;SDS011;3801;48.876;10.184;2023-04-07T02:43:38;11.10;;;6.80;;
7519;SDS011;3801;48.876;10.184;2023-04-07T02:48:43;10.63;;;6.97;;
7519;SDS011;3801;48.876;10.184;2023-04-07T02:53:47;7.90;;;5.80;;
7519;SDS011;3801;48.876;10.184;2023-04-07T02:58:51;9.50;;;5.97;;
7519;SDS011;3801;48.876;10.184;2023-04-07T03:03:56;12.33;;;6.53;;
7519;SDS011;3801;48.876;10.184;2023-04-07T03:09:01;10.70;;;7.03;;
7519;SDS011;3801;48.876;10.184;2023-04-07T03:14:07;8.57;;;5.80;;
7519;SDS011;3801;48.876;10.184;2023-04-07T03:19:21;11.57;;;6.20;;
7519;SDS011;3801;48.876;10.184;2023-04-07T03:24:27;12.47;;;7.13;;
7519;SDS011;3801;48.876;10.184;2023-04-07T03:29:33;10.50;;;6.60;;
7519;SDS011;3801;48.876;10.184;2023-04-07T03:34:42;11.10;;;6.43;;
7519;SDS011;3801;48.876;10.184;2023-04-07T03:39:47;14.73;;;7.63;;
7519;SDS011;3801;48.876;10.184;2023-04-07T03:45:07;11.27;;;6.97;;
7519;SDS011;3801;48.876;10.184;2023-04-07T03:50:21;14.10;;;7.23;;
7519;SDS011;3801;48.876;10.184;2023-04-07T03:55:35;13.57;;;6.80;;
7519;SDS011;3801;48.876;10.184;2023-04-07T04:00:46;11.77;;;7.40;;
7519;SDS011;3801;48.876;10.184;2023-04-07T04:05:56;12.07;;;7.27;;
7519;SDS011;3801;48.876;10.184;2023-04-07T04:11:03;14.07;;;7.83;;
7519;SDS011;3801;48.876;10.184;2023-04-07T04:16:13;12.43;;;7.70;;
7519;SDS011;3801;48.876;10.184;2023-04-07T04:21:20;13.83;;;7.80;;
7519;SDS011;3801;48.876;10.184;2023-04-07T04:26:25;13.43;;;7.43;;
7519;SDS011;3801;48.876;10.184;2023-04-07T04:31:36;12.77;;;7.80;;
7519;SDS011;3801;48.876;10.184;2023-04-07T04:36:42;14.30;;;8.00;;
7519;SDS011;3801;48.876;10.184;2023-04-07T04:41:46;13.50;;;6.67;;
7519;SDS011;3801;48.876;10.184;2023-04-07T04:46:51;14.87;;;7.33;;
7519;SDS011;3801;48.876;10.184;2023-04-07T04:51:56;15.43;;;8.50;;
7519;SDS011;3801;48.876;10.184;2023-04-07T04:57:02;17.40;;;8.37;;
7519;SDS011;3801;48.876;10.184;2023-04-07T05:02:07;17.03;;;9.70;;
7519;SDS011;3801;48.876;10.184;2023-04-07T05:07:12;12.87;;;7.40;;
7519;SDS011;3801;48.876;10.184;2023-04-07T05:12:16;13.40;;;8.57;;
7519;SDS011;3801;48.876;10.184;2023-04-07T05:17:24;17.17;;;8.97;;
7519;SDS011;3801;48.876;10.184;2023-04-07T05:22:29;16.90;;;10.07;;
7519;SDS011;3801;48.876;10.184;2023-04-07T05:27:33;16.37;;;9.70;;
7519;SDS011;3801;48.876;10.184;2023-04-07T05:32:44;17.13;;;9.00;;
7519;SDS011;3801;48.876;10.184;2023-04-07T05:38:02;17.60;;;10.40;;
7519;SDS011;3801;48.876;10.184;2023-04-07T05:43:09;17.40;;;10.43;;
7519;SDS011;3801;48.876;10.184;2023-04-07T05:48:13;16.63;;;9.63;;
7519;SDS011;3801;48.876;10.184;2023-04-07T05:53:21;19.33;;;10.67;;
7519;SDS011;3801;48.876;10.184;2023-04-07T05:58:25;18.20;;;11.27;;
7519;SDS011;3801;48.876;10.184;2023-04-07T06:03:30;15.63;;;9.53;;
7519;SDS011;3801;48.876;10.184;2023-04-07T06:09:06;19.37;;;11.17;;
7519;SDS011;3801;48.876;10.184;2023-04-07T06:14:10;19.77;;;11.37;;
7519;SDS011;3801;48.876;10.184;2023-04-07T06:19:13;25.37;;;12.13;;
7519;SDS011;3801;48.876;10.184;2023-04-07T06:24:18;26.50;;;12.67;;
7519;SDS011;3801;48.876;10.184;2023-04-07T06:29:23;27.33;;;14.50;;
7519;SDS011;3801;48.876;10.184;2023-04-07T06:34:28;23.73;;;11.67;;
7519;SDS011;3801;48.876;10.184;2023-04-07T06:39:33;19.37;;;12.50;;
7519;SDS011;3801;48.876;10.184;2023-04-07T06:44:37;28.27;;;13.27;;
7519;SDS011;3801;48.876;10.184;2023-04-07T06:49:44;19.90;;;12.30;;
7519;SDS011;3801;48.876;10.184;2023-04-07T06:54:49;20.73;;;11.20;;
7519;SDS011;3801;48.876;10.184;2023-04-07T06:59:53;20.20;;;11.50;;
7519;SDS011;3801;48.876;10.184;2023-04-07T07:04:57;21.40;;;11.93;;
7519;SDS011;3801;48.876;10.184;2023-04-07T07:10:02;24.83;;;12.53;;
7519;SDS011;3801;48.876;10.184;2023-04-07T07:15:06;19.97;;;11.03;;
7519;SDS011;3801;48.876;10.184;2023-04-07T07:20:09;18.27;;;10.57;;
7519;SDS011;3801;48.876;10.184;2023-04-07T07:25:48;17.53;;;10.50;;
7519;SDS011;3801;48.876;10.184;2023-04-07T07:30:51;19.30;;;10.27;;
7519;SDS011;3801;48.876;10.184;2023-04-07T07:35:55;16.10;;;9.77;;
7519;SDS011;3801;48.876;10.184;2023-04-07T07:41:00;14.33;;;10.00;;
7519;SDS011;3801;48.876;10.184;2023-04-07T07:46:03;24.53;;;14.07;;
7519;SDS011;3801;48.876;10.184;2023-04-07T07:51:07;16.70;;;9.23;;
7519;SDS011;3801;48.876;10.184;2023-04-07T07:56:12;31.67;;;18.77;;
7519;SDS011;3801;48.876;10.184;2023-04-07T08:01:15;28.13;;;15.30;;
7519;SDS011;3801;48.876;10.184;2023-04-07T08:06:19;16.90;;;10.87;;
7519;SDS011;3801;48.876;10.184;2023-04-07T08:11:24;19.40;;;11.40;;
7519;SDS011;3801;48.876;10.184;2023-04-07T08:16:28;34.47;;;17.30;;
7519;SDS011;3801;48.876;10.184;2023-04-07T08:21:32;17.80;;;11.37;;
7519;SDS011;3801;48.876;10.184;2023-04-07T08:26:37;16.50;;;8.17;;
7519;SDS011;3801;48.876;10.184;2023-04-07T08:31:40;17.57;;;9.50;;
7519;SDS011;3801;48.876;10.184;2023-04-07T08:36:43;11.07;;;7.00;;
7519;SDS011;3801;48.876;10.184;2023-04-07T08:41:49;17.50;;;10.77;;
7519;SDS011;3801;48.876;10.184;2023-04-07T08:46:52;11.90;;;7.67;;
7519;SDS011;3801;48.876;10.184;2023-04-07T08:51:58;54.50;;;23.80;;
7519;SDS011;3801;48.876;10.184;2023-04-07T08:57:07;27.63;;;16.80;;
7519;SDS011;3801;48.876;10.184;2023-04-07T09:02:12;6.70;;;4.33;;
7519;SDS011;3801;48.876;10.184;2023-04-07T09:07:16;7.80;;;5.70;;
7519;SDS011;3801;48.876;10.184;2023-04-07T09:12:21;5.57;;;4.40;;
7519;SDS011;3801;48.876;10.184;2023-04-07T09:17:25;7.83;;;5.63;;
7519;SDS011;3801;48.876;10.184;2023-04-07T09:22:36;7.03;;;5.43;;
7519;SDS011;3801;48.876;10.184;2023-04-07T09:33:09;10.93;;;6.30;;
7519;SDS011;3801;48.876;10.184;2023-04-07T09:38:18;9.67;;;5.60;;
7519;SDS011;3801;48.876;10.184;2023-04-07T09:43:22;9.03;;;6.20;;
7519;SDS011;3801;48.876;10.184;2023-04-07T09:48:27;9.70;;;6.07;;
7519;SDS011;3801;48.876;10.184;2023-04-07T09:53:40;9.20;;;6.40;;
7519;SDS011;3801;48.876;10.184;2023-04-07T09:58:46;8.80;;;5.73;;
7519;SDS011;3801;48.876;10.184;2023-04-07T10:03:54;6.40;;;4.90;;
7519;SDS011;3801;48.876;10.184;2023-04-07T10:08:58;6.97;;;5.70;;
7519;SDS011;3801;48.876;10.184;2023-04-07T10:14:04;7.47;;;5.67;;
7519;SDS011;3801;48.876;10.184;2023-04-07T10:19:09;7.33;;;5.20;;
7519;SDS011;3801;48.876;10.184;2023-04-07T10:24:16;5.03;;;3.43;;
7519;SDS011;3801;48.876;10.184;2023-04-07T10:29:23;4.87;;;3.67;;
7519;SDS011;3801;48.876;10.184;2023-04-07T10:40:26;6.10;;;4.40;;
7519;SDS011;3801;48.876;10.184;2023-04-07T10:45:15;7.63;;;6.00;;
7519;SDS011;3801;48.876;10.184;2023-04-07T10:50:18;5.83;;;4.10;;
7519;SDS011;3801;48.876;10.184;2023-04-07T10:55:34;5.83;;;4.07;;
7519;SDS011;3801;48.876;10.184;2023-04-07T11:00:38;7.27;;;5.40;;
7519;SDS011;3801;48.876;10.184;2023-04-07T11:05:42;6.43;;;5.07;;
7519;SDS011;3801;48.876;10.184;2023-04-07T11:10:47;7.37;;;5.23;;
7519;SDS011;3801;48.876;10.184;2023-04-07T11:15:51;8.20;;;5.57;;
7519;SDS011;3801;48.876;10.184;2023-04-07T11:20:55;8.93;;;6.00;;
7519;SDS011;3801;48.876;10.184;2023-04-07T11:26:03;7.70;;;5.63;;
7519;SDS011;3801;48.876;10.184;2023-04-07T11:31:08;5.93;;;4.50;;
7519;SDS011;3801;48.876;10.184;2023-04-07T11:36:11;8.03;;;4.83;;
7519;SDS011;3801;48.876;10.184;2023-04-07T11:41:16;7.23;;;5.53;;
7519;SDS011;3801;48.876;10.184;2023-04-07T11:46:20;7.87;;;5.67;;
7519;SDS011;3801;48.876;10.184;2023-04-07T11:51:24;9.30;;;6.13;;
7519;SDS011;3801;48.876;10.184;2023-04-07T11:56:31;8.30;;;5.43;;
7519;SDS011;3801;48.876;10.184;2023-04-07T12:01:43;7.93;;;5.53;;
7519;SDS011;3801;48.876;10.184;2023-04-07T12:06:47;5.80;;;4.80;;
7519;SDS011;3801;48.876;10.184;2023-04-07T12:11:52;6.27;;;4.60;;
7519;SDS011;3801;48.876;10.184;2023-04-07T12:16:55;7.00;;;4.87;;
7519;SDS011;3801;48.876;10.184;2023-04-07T12:22:01;6.13;;;4.30;;
7519;SDS011;3801;48.876;10.184;2023-04-07T12:27:06;6.33;;;5.13;;
7519;SDS011;3801;48.876;10.184;2023-04-07T12:32:09;6.87;;;4.87;;
7519;SDS011;3801;48.876;10.184;2023-04-07T12:37:13;5.13;;;3.93;;
7519;SDS011;3801;48.876;10.184;2023-04-07T12:42:18;5.00;;;3.57;;
7519;SDS011;3801;48.876;10.184;2023-04-07T12:47:21;5.67;;;4.20;;
7519;SDS011;3801;48.876;10.184;2023-04-07T12:52:25;5.60;;;4.13;;
7519;SDS011;3801;48.876;10.184;2023-04-07T12:57:30;7.13;;;4.27;;
7519;SDS011;3801;48.876;10.184;2023-04-07T13:02:34;5.43;;;4.00;;
7519;SDS011;3801;48.876;10.184;2023-04-07T13:07:38;7.17;;;4.63;;
7519;SDS011;3801;48.876;10.184;2023-04-07T13:12:43;8.93;;;4.80;;
7519;SDS011;3801;48.876;10.184;2023-04-07T13:17:47;6.10;;;3.90;;
7519;SDS011;3801;48.876;10.184;2023-04-07T13:22:50;5.73;;;4.37;;
7519;SDS011;3801;48.876;10.184;2023-04-07T13:28:10;5.03;;;3.93;;
7519;SDS011;3801;48.876;10.184;2023-04-07T13:33:13;5.57;;;3.37;;
7519;SDS011;3801;48.876;10.184;2023-04-07T13:38:17;5.23;;;4.00;;
7519;SDS011;3801;48.876;10.184;2023-04-07T13:43:22;5.90;;;4.03;;
7519;SDS011;3801;48.876;10.184;2023-04-07T13:48:25;4.70;;;3.20;;
7519;SDS011;3801;48.876;10.184;2023-04-07T13:53:29;4.90;;;4.00;;
7519;SDS011;3801;48.876;10.184;2023-04-07T13:58:34;4.33;;;3.50;;
7519;SDS011;3801;48.876;10.184;2023-04-07T14:03:37;5.10;;;4.00;;
7519;SDS011;3801;48.876;10.184;2023-04-07T14:08:40;4.87;;;3.60;;
7519;SDS011;3801;48.876;10.184;2023-04-07T14:13:45;6.80;;;3.50;;
7519;SDS011;3801;48.876;10.184;2023-04-07T14:18:49;5.70;;;3.10;;
7519;SDS011;3801;48.876;10.184;2023-04-07T14:23:52;7.93;;;3.40;;
7519;SDS011;3801;48.876;10.184;2023-04-07T14:28:58;4.40;;;3.50;;
7519;SDS011;3801;48.876;10.184;2023-04-07T14:34:01;6.00;;;3.77;;
7519;SDS011;3801;48.876;10.184;2023-04-07T14:39:05;5.97;;;3.60;;
7519;SDS011;3801;48.876;10.184;2023-04-07T14:44:09;13.53;;;7.23;;
7519;SDS011;3801;48.876;10.184;2023-04-07T14:49:13;4.53;;;3.80;;
7519;SDS011;3801;48.876;10.184;2023-04-07T14:54:16;6.13;;;4.30;;
7519;SDS011;3801;48.876;10.184;2023-04-07T14:59:21;7.23;;;4.40;;
7519;SDS011;3801;48.876;10.184;2023-04-07T15:04:24;5.87;;;3.83;;
7519;SDS011;3801;48.876;10.184;2023-04-07T15:09:27;4.13;;;3.53;;
7519;SDS011;3801;48.876;10.184;2023-04-07T15:14:32;8.80;;;3.93;;
7519;SDS011;3801;48.876;10.184;2023-04-07T15:19:35;5.23;;;3.90;;
7519;SDS011;3801;48.876;10.184;2023-04-07T15:24:39;5.23;;;4.00;;
7519;SDS011;3801;48.876;10.184;2023-04-07T15:29:43;8.53;;;4.13;;
7519;SDS011;3801;48.876;10.184;2023-04-07T15:34:47;6.50;;;3.90;;
7519;SDS011;3801;48.876;10.184;2023-04-07T15:39:51;5.53;;;3.53;;
7519;SDS011;3801;48.876;10.184;2023-04-07T15:44:55;5.10;;;3.30;;
7519;SDS011;3801;48.876;10.184;2023-04-07T15:49:59;5.03;;;3.60;;
7519;SDS011;3801;48.876;10.184;2023-04-07T15:55:02;7.23;;;4.37;;
7519;SDS011;3801;48.876;10.184;2023-04-07T16:00:08;9.67;;;5.73;;
7519;SDS011;3801;48.876;10.184;2023-04-07T16:05:11;6.87;;;3.20;;
7519;SDS011;3801;48.876;10.184;2023-04-07T16:10:15;5.07;;;4.23;;
7519;SDS011;3801;48.876;10.184;2023-04-07T16:15:21;3.80;;;3.47;;
7519;SDS011;3801;48.876;10.184;2023-04-07T16:20:40;5.67;;;3.30;;
7519;SDS011;3801;48.876;10.184;2023-04-07T16:25:43;5.70;;;3.77;;
7519;SDS011;3801;48.876;10.184;2023-04-07T16:30:48;5.37;;;4.60;;
7519;SDS011;3801;48.876;10.184;2023-04-07T16:35:51;15.27;;;9.63;;
7519;SDS011;3801;48.876;10.184;2023-04-07T16:40:55;4.97;;;4.07;;
7519;SDS011;3801;48.876;10.184;2023-04-07T16:46:06;7.93;;;5.30;;
7519;SDS011;3801;48.876;10.184;2023-04-07T16:51:10;13.87;;;8.70;;
7519;SDS011;3801;48.876;10.184;2023-04-07T16:56:17;6.87;;;4.37;;
7519;SDS011;3801;48.876;10.184;2023-04-07T17:01:23;13.97;;;7.67;;
7519;SDS011;3801;48.876;10.184;2023-04-07T17:06:29;10.13;;;6.57;;
7519;SDS011;3801;48.876;10.184;2023-04-07T17:11:32;8.97;;;6.20;;
7519;SDS011;3801;48.876;10.184;2023-04-07T17:16:37;16.40;;;11.20;;
7519;SDS011;3801;48.876;10.184;2023-04-07T17:21:40;13.23;;;6.73;;
7519;SDS011;3801;48.876;10.184;2023-04-07T17:26:44;38.13;;;20.93;;
7519;SDS011;3801;48.876;10.184;2023-04-07T17:31:49;21.53;;;12.43;;
7519;SDS011;3801;48.876;10.184;2023-04-07T17:36:53;11.33;;;7.10;;
7519;SDS011;3801;48.876;10.184;2023-04-07T17:41:56;7.33;;;4.80;;
7519;SDS011;3801;48.876;10.184;2023-04-07T17:47:01;12.23;;;5.77;;
7519;SDS011;3801;48.876;10.184;2023-04-07T17:52:04;10.17;;;7.03;;
7519;SDS011;3801;48.876;10.184;2023-04-07T17:57:08;6.03;;;4.80;;
7519;SDS011;3801;48.876;10.184;2023-04-07T18:02:13;6.57;;;3.93;;
7519;SDS011;3801;48.876;10.184;2023-04-07T18:07:17;8.00;;;6.13;;
7519;SDS011;3801;48.876;10.184;2023-04-07T18:12:20;6.03;;;4.13;;
7519;SDS011;3801;48.876;10.184;2023-04-07T18:17:25;5.17;;;3.93;;
7519;SDS011;3801;48.876;10.184;2023-04-07T18:22:28;5.53;;;3.10;;
7519;SDS011;3801;48.876;10.184;2023-04-07T18:27:32;8.20;;;4.40;;
7519;SDS011;3801;48.876;10.184;2023-04-07T18:32:36;5.47;;;3.13;;
7519;SDS011;3801;48.876;10.184;2023-04-07T18:37:40;7.07;;;4.23;;
7519;SDS011;3801;48.876;10.184;2023-04-07T18:42:45;5.50;;;3.90;;
7519;SDS011;3801;48.876;10.184;2023-04-07T18:47:49;4.63;;;3.87;;
7519;SDS011;3801;48.876;10.184;2023-04-07T18:52:53;5.87;;;3.87;;
7519;SDS011;3801;48.876;10.184;2023-04-07T18:57:56;6.67;;;4.60;;
7519;SDS011;3801;48.876;10.184;2023-04-07T19:03:01;8.57;;;5.20;;
7519;SDS011;3801;48.876;10.184;2023-04-07T19:08:04;5.20;;;4.13;;
7519;SDS011;3801;48.876;10.184;2023-04-07T19:13:07;8.67;;;4.87;;
7519;SDS011;3801;48.876;10.184;2023-04-07T19:18:12;12.97;;;7.17;;
7519;SDS011;3801;48.876;10.184;2023-04-07T19:23:15;9.07;;;5.60;;
7519;SDS011;3801;48.876;10.184;2023-04-07T19:28:19;12.37;;;7.43;;
7519;SDS011;3801;48.876;10.184;2023-04-07T19:33:24;7.97;;;5.33;;
7519;SDS011;3801;48.876;10.184;2023-04-07T19:38:27;11.07;;;6.00;;
7519;SDS011;3801;48.876;10.184;2023-04-07T19:43:30;11.80;;;6.80;;
7519;SDS011;3801;48.876;10.184;2023-04-07T19:48:35;13.07;;;7.93;;
7519;SDS011;3801;48.876;10.184;2023-04-07T19:53:38;12.97;;;7.57;;
7519;SDS011;3801;48.876;10.184;2023-04-07T19:58:42;12.50;;;6.73;;
7519;SDS011;3801;48.876;10.184;2023-04-07T20:03:47;13.70;;;7.97;;
7519;SDS011;3801;48.876;10.184;2023-04-07T20:08:53;7.87;;;4.83;;
7519;SDS011;3801;48.876;10.184;2023-04-07T20:13:57;6.70;;;4.17;;
7519;SDS011;3801;48.876;10.184;2023-04-07T20:19:02;7.00;;;4.27;;
7519;SDS011;3801;48.876;10.184;2023-04-07T20:24:06;6.40;;;3.93;;
7519;SDS011;3801;48.876;10.184;2023-04-07T20:29:09;7.17;;;4.10;;
7519;SDS011;3801;48.876;10.184;2023-04-07T20:34:14;8.47;;;4.67;;
7519;SDS011;3801;48.876;10.184;2023-04-07T20:39:17;8.80;;;4.50;;
7519;SDS011;3801;48.876;10.184;2023-04-07T20:44:21;11.03;;;6.13;;
7519;SDS011;3801;48.876;10.184;2023-04-07T20:49:26;9.13;;;5.90;;
7519;SDS011;3801;48.876;10.184;2023-04-07T20:54:29;11.07;;;5.90;;
7519;SDS011;3801;48.876;10.184;2023-04-07T20:59:33;13.70;;;7.20;;
7519;SDS011;3801;48.876;10.184;2023-04-07T21:04:38;15.97;;;8.70;;
7519;SDS011;3801;48.876;10.184;2023-04-07T21:09:43;15.60;;;7.97;;
7519;SDS011;3801;48.876;10.184;2023-04-07T21:14:46;11.40;;;7.10;;
7519;SDS011;3801;48.876;10.184;2023-04-07T21:19:51;9.63;;;6.60;;
7519;SDS011;3801;48.876;10.184;2023-04-07T21:24:55;13.20;;;8.07;;
7519;SDS011;3801;48.876;10.184;2023-04-07T21:30:02;9.77;;;6.73;;
7519;SDS011;3801;48.876;10.184;2023-04-07T21:35:07;11.47;;;7.70;;
7519;SDS011;3801;48.876;10.184;2023-04-07T21:40:11;12.83;;;8.57;;
7519;SDS011;3801;48.876;10.184;2023-04-07T21:45:15;11.87;;;6.57;;
7519;SDS011;3801;48.876;10.184;2023-04-07T21:50:20;9.17;;;5.20;;
7519;SDS011;3801;48.876;10.184;2023-04-07T21:55:24;9.13;;;5.23;;
7519;SDS011;3801;48.876;10.184;2023-04-07T22:00:28;12.23;;;6.97;;
7519;SDS011;3801;48.876;10.184;2023-04-07T22:05:33;7.27;;;5.30;;
7519;SDS011;3801;48.876;10.184;2023-04-07T22:10:37;10.93;;;7.13;;
7519;SDS011;3801;48.876;10.184;2023-04-07T22:15:40;12.30;;;7.47;;
7519;SDS011;3801;48.876;10.184;2023-04-07T22:20:45;8.90;;;6.37;;
7519;SDS011;3801;48.876;10.184;2023-04-07T22:25:49;16.00;;;8.70;;
7519;SDS011;3801;48.876;10.184;2023-04-07T22:30:52;9.47;;;5.50;;
7519;SDS011;3801;48.876;10.184;2023-04-07T22:35:57;9.73;;;6.33;;
7519;SDS011;3801;48.876;10.184;2023-04-07T22:41:00;7.90;;;6.33;;
7519;SDS011;3801;48.876;10.184;2023-04-07T22:46:04;11.27;;;6.33;;
7519;SDS011;3801;48.876;10.184;2023-04-07T22:51:09;10.40;;;7.30;;
7519;SDS011;3801;48.876;10.184;2023-04-07T22:56:12;10.50;;;7.47;;
7519;SDS011;3801;48.876;10.184;2023-04-07T23:01:16;12.00;;;7.73;;
7519;SDS011;3801;48.876;10.184;2023-04-07T23:06:21;11.43;;;7.67;;
7519;SDS011;3801;48.876;10.184;2023-04-07T23:11:24;14.37;;;8.13;;
7519;SDS011;3801;48.876;10.184;2023-04-07T23:16:28;12.00;;;7.90;;
7519;SDS011;3801;48.876;10.184;2023-04-07T23:21:33;10.13;;;7.57;;
7519;SDS011;3801;48.876;10.184;2023-04-07T23:26:36;11.00;;;7.37;;
7519;SDS011;3801;48.876;10.184;2023-04-07T23:31:40;8.40;;;6.57;;
7519;SDS011;3801;48.876;10.184;2023-04-07T23:36:44;14.73;;;8.43;;
7519;SDS011;3801;48.876;10.184;2023-04-07T23:41:48;11.50;;;7.33;;
7519;SDS011;3801;48.876;10.184;2023-04-07T23:46:51;13.37;;;8.37;;
7519;SDS011;3801;48.876;10.184;2023-04-07T23:51:56;17.03;;;9.30;;
7519;SDS011;3801;48.876;10.184;2023-04-07T23:57:00;12.53;;;8.47;;
